Time;durP1;ratioP1;P1;durP2;ratioP2;P2;SDS_P1;SDS_P2;PMS_P1;PMS_P2;Temp;Humidity;BMP_temperature;BMP_pressure;BME280_temperature;BME280_humidity;BME280_pressure;Samples;Min_cycle;Max_cycle;Signal;HPM_P1;HPM_P2
2022/07/28 00:00:16;;;;;;;;;;;17.20;92.10;;;;;;4993252;28;20208;-63
2022/07/28 00:02:43;;;;;;;;;;;17.10;92.10;;;;;;5009250;28;20208;-63
2022/07/28 00:05:11;;;;;;;;;;;17.20;92.30;;;;;;4971857;28;20244;-63
2022/07/28 00:07:40;;;;;;;;;;;17.20;92.30;;;;;;4971063;28;20252;-62
2022/07/28 00:10:09;;;;;;;;;;;17.10;92.20;;;;;;4969522;28;20196;-63
2022/07/28 00:12:36;;;;;;;;;;;17.10;92.50;;;;;;4969056;28;20208;-62
2022/07/28 00:15:05;;;;;;;;;;;17.10;92.40;;;;;;4977994;28;20204;-63
2022/07/28 00:17:33;;;;;;;;;;;17.10;92.60;;;;;;4969712;28;20208;-62
2022/07/28 00:20:01;;;;;;;;;;;17.10;92.40;;;;;;4971111;28;20203;-62
2022/07/28 00:22:28;;;;;;;;;;;17.10;92.40;;;;;;4986623;28;20219;-61
2022/07/28 00:24:57;;;;;;;;;;;17.00;92.70;;;;;;4970400;28;20204;-62
2022/07/28 00:27:25;;;;;;;;;;;17.00;92.60;;;;;;4977255;28;20204;-63
2022/07/28 00:29:53;;;;;;;;;;;17.00;92.70;;;;;;4988401;28;20208;-63
2022/07/28 00:32:20;;;;;;;;;;;17.10;93.30;;;;;;4985363;28;20677;-63
2022/07/28 00:34:49;;;;;;;;;;;17.20;92.70;;;;;;4970179;28;20206;-62
2022/07/28 00:37:20;;;;;;;;;;;17.20;92.50;;;;;;4987477;28;20204;-62
2022/07/28 00:39:48;;;;;;;;;;;17.10;92.60;;;;;;4998203;28;20192;-63
2022/07/28 00:42:19;;;;;;;;;;;17.00;92.70;;;;;;4968299;28;20253;-62
2022/07/28 00:44:46;;;;;;;;;;;16.90;92.80;;;;;;4974703;28;20265;-63
2022/07/28 00:47:14;;;;;;;;;;;16.90;93.00;;;;;;4981877;28;20227;-63
2022/07/28 00:49:44;;;;;;;;;;;16.90;93.10;;;;;;4970227;28;20242;-63
2022/07/28 00:52:13;;;;;;;;;;;16.80;93.00;;;;;;4971595;28;20303;-63
2022/07/28 00:54:40;;;;;;;;;;;16.90;93.30;;;;;;4970541;28;20208;-62
2022/07/28 00:57:08;;;;;;;;;;;16.80;93.20;;;;;;4967741;28;20196;-63
2022/07/28 00:59:37;;;;;;;;;;;16.90;93.30;;;;;;4981781;28;20203;-63
2022/07/28 01:02:05;;;;;;;;;;;17.10;93.10;;;;;;4968153;28;20238;-62
2022/07/28 01:04:33;;;;;;;;;;;17.00;93.00;;;;;;4969215;28;20204;-62
2022/07/28 01:07:06;;;;;;;;;;;17.00;94.50;;;;;;4969983;28;20193;-62
2022/07/28 01:09:52;;;;;;;;;;;17.00;93.00;;;;;;4969406;28;20571;-62
2022/07/28 01:12:26;;;;;;;;;;;16.90;93.50;;;;;;4976088;28;20204;-62
2022/07/28 01:15:01;;;;;;;;;;;17.00;93.40;;;;;;4970374;28;20241;-62
2022/07/28 01:17:32;;;;;;;;;;;16.90;93.20;;;;;;4969349;28;20226;-61
2022/07/28 01:20:04;;;;;;;;;;;16.80;93.40;;;;;;4983924;28;20601;-62
2022/07/28 01:22:34;;;;;;;;;;;16.90;93.10;;;;;;4976639;28;20207;-63
2022/07/28 01:25:06;;;;;;;;;;;16.90;93.30;;;;;;4969002;28;20204;-61
2022/07/28 01:27:43;;;;;;;;;;;16.80;93.60;;;;;;4989418;28;20618;-62
2022/07/28 01:30:25;;;;;;;;;;;16.90;93.30;;;;;;4968502;28;20669;-61
2022/07/28 01:32:59;;;;;;;;;;;16.80;93.30;;;;;;4967777;28;20278;-62
2022/07/28 01:35:29;;;;;;;;;;;16.70;93.50;;;;;;4991684;28;20198;-62
2022/07/28 01:37:59;;;;;;;;;;;16.60;93.50;;;;;;4968788;28;20246;-62
2022/07/28 01:40:29;;;;;;;;;;;16.60;93.60;;;;;;4974413;28;20208;-61
2022/07/28 01:42:58;;;;;;;;;;;16.50;93.70;;;;;;4969776;28;20258;-62
2022/07/28 01:45:27;;;;;;;;;;;16.50;93.90;;;;;;4969102;28;20208;-62
2022/07/28 01:47:58;;;;;;;;;;;16.50;93.90;;;;;;4986140;28;20738;-62
2022/07/28 01:50:26;;;;;;;;;;;16.50;93.80;;;;;;4969066;28;20208;-62
2022/07/28 01:52:55;;;;;;;;;;;16.70;93.70;;;;;;4983066;28;20649;-62
2022/07/28 01:55:24;;;;;;;;;;;16.60;93.70;;;;;;4968953;28;20750;-63
2022/07/28 01:57:54;;;;;;;;;;;16.60;94.00;;;;;;4968592;28;20226;-62
2022/07/28 02:00:22;;;;;;;;;;;16.60;93.80;;;;;;4980045;28;20258;-62
2022/07/28 02:02:52;;;;;;;;;;;16.60;93.80;;;;;;4969463;28;20198;-63
2022/07/28 02:05:23;;;;;;;;;;;16.50;93.80;;;;;;4968828;28;20199;-62
2022/07/28 02:07:51;;;;;;;;;;;16.50;94.00;;;;;;4967625;28;20204;-63
2022/07/28 02:10:19;;;;;;;;;;;16.50;93.90;;;;;;4980664;28;20225;-63
2022/07/28 02:12:49;;;;;;;;;;;16.50;94.00;;;;;;4971498;28;20200;-63
2022/07/28 02:15:17;;;;;;;;;;;16.50;93.90;;;;;;4973524;28;20204;-63
2022/07/28 02:17:46;;;;;;;;;;;16.50;93.80;;;;;;4967654;28;20208;-62
2022/07/28 02:20:15;;;;;;;;;;;16.50;93.90;;;;;;4982480;28;20673;-63
2022/07/28 02:22:45;;;;;;;;;;;16.50;93.80;;;;;;4966335;28;20215;-61
2022/07/28 02:25:19;;;;;;;;;;;16.50;93.80;;;;;;4967324;28;20281;-62
2022/07/28 02:27:48;;;;;;;;;;;16.50;94.20;;;;;;4966365;28;20207;-62
2022/07/28 02:30:17;;;;;;;;;;;16.50;94.00;;;;;;4982308;28;20254;-62
2022/07/28 02:32:48;;;;;;;;;;;16.50;93.90;;;;;;4965951;28;20664;-62
2022/07/28 02:35:20;;;;;;;;;;;16.60;93.80;;;;;;4967167;28;20628;-62
2022/07/28 02:37:53;;;;;;;;;;;16.60;93.90;;;;;;4972315;28;20562;-62
2022/07/28 02:40:21;;;;;;;;;;;16.50;94.00;;;;;;4969000;28;20687;-61
2022/07/28 02:42:51;;;;;;;;;;;16.50;93.90;;;;;;4975145;28;20200;-62
2022/07/28 02:45:21;;;;;;;;;;;16.50;93.80;;;;;;4986587;28;20205;-62
2022/07/28 02:47:51;;;;;;;;;;;16.50;94.00;;;;;;4975133;28;20626;-62
2022/07/28 02:50:21;;;;;;;;;;;16.50;94.50;;;;;;4977803;28;20246;-63
2022/07/28 02:52:51;;;;;;;;;;;16.60;93.90;;;;;;4967369;28;20189;-62
2022/07/28 02:55:19;;;;;;;;;;;16.50;94.00;;;;;;4967481;28;20196;-62
2022/07/28 02:57:47;;;;;;;;;;;16.50;94.30;;;;;;4967940;28;20629;-62
2022/07/28 03:00:23;;;;;;;;;;;16.50;93.80;;;;;;4967734;28;20223;-62
2022/07/28 03:02:51;;;;;;;;;;;16.50;93.80;;;;;;4965587;28;20270;-62
2022/07/28 03:05:19;;;;;;;;;;;16.50;93.90;;;;;;4966486;28;20204;-62
2022/07/28 03:07:51;;;;;;;;;;;16.50;93.80;;;;;;4988905;28;20741;-62
2022/07/28 03:10:22;;;;;;;;;;;16.50;93.80;;;;;;4965779;28;20200;-62
2022/07/28 03:13:01;;;;;;;;;;;16.40;93.90;;;;;;4965595;28;20195;-60
2022/07/28 03:15:30;;;;;;;;;;;16.40;93.90;;;;;;4967236;28;20204;-62
2022/07/28 03:17:58;;;;;;;;;;;16.40;94.00;;;;;;4976933;28;20677;-63
2022/07/28 03:20:26;;;;;;;;;;;16.50;93.80;;;;;;4967690;28;20266;-63
2022/07/28 03:22:54;;;;;;;;;;;16.50;93.80;;;;;;4967414;28;20719;-63
2022/07/28 03:25:24;;;;;;;;;;;16.40;93.90;;;;;;4969341;28;20261;-63
2022/07/28 03:27:53;;;;;;;;;;;16.40;93.80;;;;;;4970800;28;20249;-63
2022/07/28 03:30:24;;;;;;;;;;;16.50;93.90;;;;;;4971694;28;20200;-63
2022/07/28 03:32:55;;;;;;;;;;;16.40;94.00;;;;;;4972359;28;20199;-62
2022/07/28 03:35:23;;;;;;;;;;;16.30;94.20;;;;;;4966944;28;20208;-63
2022/07/28 03:37:53;;;;;;;;;;;16.30;94.30;;;;;;4973415;28;20204;-63
2022/07/28 03:40:24;;;;;;;;;;;16.30;94.30;;;;;;4969127;28;20261;-63
2022/07/28 03:42:53;;;;;;;;;;;16.30;94.30;;;;;;4975025;28;20253;-63
2022/07/28 03:45:21;;;;;;;;;;;16.40;94.70;;;;;;4970187;28;20200;-63
2022/07/28 03:47:49;;;;;;;;;;;16.40;94.40;;;;;;4979432;28;20254;-63
2022/07/28 03:50:17;;;;;;;;;;;16.30;94.50;;;;;;4969887;28;20230;-62
2022/07/28 03:52:45;;;;;;;;;;;16.40;94.30;;;;;;4972459;28;20242;-63
2022/07/28 03:55:13;;;;;;;;;;;16.40;94.30;;;;;;4970302;28;20204;-61
2022/07/28 03:57:43;;;;;;;;;;;16.40;94.50;;;;;;4973076;28;20228;-61
2022/07/28 04:00:11;;;;;;;;;;;16.40;94.70;;;;;;4979660;28;20734;-62
2022/07/28 04:02:42;;;;;;;;;;;16.30;94.50;;;;;;4966284;28;20201;-62
2022/07/28 04:05:11;;;;;;;;;;;16.40;94.40;;;;;;4969692;28;20207;-61
2022/07/28 04:07:39;;;;;;;;;;;16.40;95.10;;;;;;4993944;28;20258;-62
2022/07/28 04:10:07;;;;;;;;;;;16.50;94.60;;;;;;4970832;28;20200;-62
2022/07/28 04:12:47;;;;;;;;;;;16.50;94.60;;;;;;4979736;28;20218;-62
2022/07/28 04:15:16;;;;;;;;;;;16.50;94.40;;;;;;4968990;28;20204;-62
2022/07/28 04:17:44;;;;;;;;;;;16.50;95.00;;;;;;4969165;28;20215;-63
2022/07/28 04:20:12;;;;;;;;;;;16.60;94.40;;;;;;4970156;28;20204;-63
2022/07/28 04:22:40;;;;;;;;;;;16.60;94.30;;;;;;4990137;28;20341;-62
2022/07/28 04:25:08;;;;;;;;;;;16.60;94.50;;;;;;4972491;28;20196;-63
2022/07/28 04:27:36;;;;;;;;;;;16.60;94.40;;;;;;4968021;28;20208;-63
2022/07/28 04:30:06;;;;;;;;;;;16.70;94.70;;;;;;4978432;28;20200;-64
2022/07/28 04:32:34;;;;;;;;;;;16.70;94.50;;;;;;4967056;28;20196;-63
2022/07/28 04:35:02;;;;;;;;;;;16.70;94.50;;;;;;4971719;28;20571;-64
2022/07/28 04:37:30;;;;;;;;;;;16.80;94.40;;;;;;4976586;28;20208;-63
2022/07/28 04:39:59;;;;;;;;;;;16.70;94.50;;;;;;4974829;28;20212;-63
2022/07/28 04:42:27;;;;;;;;;;;16.70;94.30;;;;;;4980587;28;20212;-63
2022/07/28 04:44:55;;;;;;;;;;;16.80;94.50;;;;;;4970922;28;20196;-63
2022/07/28 04:47:24;;;;;;;;;;;16.80;94.50;;;;;;4996484;28;20243;-63
2022/07/28 04:49:51;;;;;;;;;;;16.80;94.80;;;;;;4996192;28;20849;-63
2022/07/28 04:52:20;;;;;;;;;;;16.80;94.60;;;;;;5003690;28;20200;-63
2022/07/28 04:54:48;;;;;;;;;;;16.80;94.50;;;;;;4973405;28;20845;-63
2022/07/28 04:57:16;;;;;;;;;;;16.80;94.60;;;;;;4971926;28;20285;-64
2022/07/28 04:59:44;;;;;;;;;;;16.90;94.60;;;;;;4983097;28;20211;-63
2022/07/28 05:02:14;;;;;;;;;;;16.90;94.60;;;;;;4980261;28;20208;-62
2022/07/28 05:04:44;;;;;;;;;;;16.90;94.40;;;;;;4961140;28;20207;-62
2022/07/28 05:07:12;;;;;;;;;;;16.90;94.30;;;;;;4964727;28;20656;-63
2022/07/28 05:09:40;;;;;;;;;;;17.00;94.50;;;;;;5000447;28;20209;-62
2022/07/28 05:12:08;;;;;;;;;;;17.00;94.50;;;;;;4969796;28;20829;-63
2022/07/28 05:14:36;;;;;;;;;;;17.00;94.60;;;;;;4960204;28;20212;-62
2022/07/28 05:17:04;;;;;;;;;;;17.10;94.40;;;;;;4959863;28;20269;-63
2022/07/28 05:19:31;;;;;;;;;;;17.10;94.50;;;;;;4961372;28;20208;-65
2022/07/28 05:22:00;;;;;;;;;;;17.10;94.60;;;;;;4982324;28;20208;-64
2022/07/28 05:24:28;;;;;;;;;;;17.20;94.80;;;;;;4958322;28;20196;-62
2022/07/28 05:26:56;;;;;;;;;;;17.20;94.60;;;;;;4967672;28;20225;-63
2022/07/28 05:29:24;;;;;;;;;;;17.20;94.60;;;;;;4989198;28;20229;-63
2022/07/28 05:32:04;;;;;;;;;;;17.20;94.60;;;;;;4962105;28;20306;-64
2022/07/28 05:34:44;;;;;;;;;;;17.30;94.50;;;;;;4977930;28;20237;-64
2022/07/28 05:37:13;;;;;;;;;;;17.30;94.40;;;;;;4975365;28;20196;-62
2022/07/28 05:39:41;;;;;;;;;;;17.30;94.50;;;;;;4966950;28;20204;-63
2022/07/28 05:42:08;;;;;;;;;;;17.30;94.40;;;;;;4968111;28;20221;-64
2022/07/28 05:44:36;;;;;;;;;;;17.30;94.60;;;;;;4968498;28;20196;-63
2022/07/28 05:47:05;;;;;;;;;;;17.40;94.60;;;;;;4986387;28;20196;-64
2022/07/28 05:49:34;;;;;;;;;;;17.40;94.30;;;;;;4976035;28;20202;-63
2022/07/28 05:52:02;;;;;;;;;;;17.50;94.60;;;;;;4974334;28;20205;-63
2022/07/28 05:54:31;;;;;;;;;;;17.50;94.40;;;;;;4974878;28;20193;-63
2022/07/28 05:56:58;;;;;;;;;;;17.60;94.40;;;;;;4973818;28;20231;-61
2022/07/28 05:59:26;;;;;;;;;;;17.70;94.50;;;;;;4968722;28;20200;-62
2022/07/28 06:01:54;;;;;;;;;;;17.90;94.40;;;;;;4966355;28;20287;-65
2022/07/28 06:04:22;;;;;;;;;;;18.00;94.80;;;;;;4966337;28;20196;-64
2022/07/28 06:06:55;;;;;;;;;;;18.10;93.90;;;;;;4973831;28;20246;-61
2022/07/28 06:09:22;;;;;;;;;;;18.10;93.90;;;;;;4967557;28;20258;-63
2022/07/28 06:11:51;;;;;;;;;;;18.00;94.10;;;;;;4970581;28;20204;-63
2022/07/28 06:14:19;;;;;;;;;;;18.10;94.20;;;;;;4970644;28;20657;-64
2022/07/28 06:16:49;;;;;;;;;;;18.10;94.00;;;;;;4970803;28;20195;-64
2022/07/28 06:19:18;;;;;;;;;;;18.10;94.10;;;;;;4970913;28;20669;-64
2022/07/28 06:21:46;;;;;;;;;;;18.20;93.90;;;;;;4970141;28;20589;-64
2022/07/28 06:24:14;;;;;;;;;;;18.30;94.10;;;;;;4970352;28;20207;-64
2022/07/28 06:26:42;;;;;;;;;;;18.50;93.80;;;;;;4970311;28;20630;-64
2022/07/28 06:29:13;;;;;;;;;;;18.60;94.10;;;;;;4969509;28;20219;-62
2022/07/28 06:31:40;;;;;;;;;;;18.60;93.90;;;;;;4970513;28;20258;-64
2022/07/28 06:34:08;;;;;;;;;;;18.80;94.20;;;;;;4970300;28;20704;-65
2022/07/28 06:36:36;;;;;;;;;;;18.90;93.50;;;;;;4970172;28;20250;-65
2022/07/28 06:39:04;;;;;;;;;;;18.90;93.50;;;;;;4970353;28;20513;-64
2022/07/28 06:41:32;;;;;;;;;;;18.90;93.30;;;;;;4969154;28;20204;-63
2022/07/28 06:44:00;;;;;;;;;;;19.00;93.40;;;;;;4969602;28;20200;-65
2022/07/28 06:46:30;;;;;;;;;;;19.00;93.60;;;;;;4969494;28;20211;-64
2022/07/28 06:48:58;;;;;;;;;;;19.10;93.40;;;;;;4969661;28;20204;-64
2022/07/28 06:51:26;;;;;;;;;;;19.10;93.50;;;;;;4968584;28;20642;-65
2022/07/28 06:53:54;;;;;;;;;;;19.10;93.10;;;;;;4968279;28;20204;-64
2022/07/28 06:56:22;;;;;;;;;;;19.20;93.10;;;;;;4969422;28;20204;-64
2022/07/28 06:58:50;;;;;;;;;;;19.20;93.10;;;;;;4969902;28;20274;-64
2022/07/28 07:01:18;;;;;;;;;;;19.20;93.60;;;;;;4970378;28;20204;-65
2022/07/28 07:03:47;;;;;;;;;;;19.30;93.40;;;;;;4970501;28;20608;-64
2022/07/28 07:06:15;;;;;;;;;;;19.30;93.40;;;;;;4970554;28;20207;-64
2022/07/28 07:08:43;;;;;;;;;;;19.40;93.50;;;;;;4970638;28;20584;-65
2022/07/28 07:11:10;;;;;;;;;;;19.50;93.80;;;;;;4970228;28;20253;-64
2022/07/28 07:13:38;;;;;;;;;;;19.80;93.10;;;;;;4969961;28;20207;-63
2022/07/28 07:16:06;;;;;;;;;;;19.80;93.10;;;;;;4970043;28;20204;-64
2022/07/28 07:18:34;;;;;;;;;;;19.70;92.90;;;;;;4969816;28;20674;-64
2022/07/28 07:21:03;;;;;;;;;;;19.70;93.10;;;;;;4970018;28;20204;-64
2022/07/28 07:23:31;;;;;;;;;;;19.80;93.30;;;;;;4970146;28;20600;-64
2022/07/28 07:25:59;;;;;;;;;;;20.10;93.20;;;;;;4969783;28;20277;-64
2022/07/28 07:28:26;;;;;;;;;;;20.30;93.00;;;;;;4970096;28;20246;-64
2022/07/28 07:30:54;;;;;;;;;;;20.50;93.00;;;;;;4969700;28;20204;-64
2022/07/28 07:33:22;;;;;;;;;;;20.50;92.30;;;;;;4969615;28;20214;-65
2022/07/28 07:35:50;;;;;;;;;;;20.50;92.60;;;;;;4970097;28;20232;-64
2022/07/28 07:38:19;;;;;;;;;;;20.70;92.60;;;;;;4969949;28;20204;-64
2022/07/28 07:40:47;;;;;;;;;;;20.60;92.20;;;;;;4969866;28;20212;-65
2022/07/28 07:43:15;;;;;;;;;;;20.40;92.30;;;;;;4969738;28;20254;-64
2022/07/28 07:45:42;;;;;;;;;;;20.50;92.60;;;;;;4969846;28;20196;-64
2022/07/28 07:48:10;;;;;;;;;;;20.60;92.60;;;;;;4969885;28;20665;-64
2022/07/28 07:50:38;;;;;;;;;;;20.70;92.70;;;;;;4969996;28;20211;-64
2022/07/28 07:53:05;;;;;;;;;;;20.90;92.10;;;;;;4969852;28;20204;-64
2022/07/28 07:55:35;;;;;;;;;;;21.00;92.40;;;;;;4969991;28;20204;-64
2022/07/28 07:58:04;;;;;;;;;;;21.20;92.00;;;;;;4968117;28;20279;-64
2022/07/28 08:00:32;;;;;;;;;;;21.10;92.00;;;;;;4969837;28;20204;-64
2022/07/28 08:03:00;;;;;;;;;;;21.00;92.10;;;;;;4969532;28;20208;-64
2022/07/28 08:05:29;;;;;;;;;;;21.00;92.20;;;;;;4969733;28;20279;-64
2022/07/28 08:08:03;;;;;;;;;;;21.20;92.40;;;;;;4969447;28;20200;-65
2022/07/28 08:10:31;;;;;;;;;;;21.60;92.90;;;;;;4970224;28;20246;-64
2022/07/28 08:13:00;;;;;;;;;;;21.80;92.10;;;;;;4972664;28;20265;-64
2022/07/28 08:15:28;;;;;;;;;;;22.00;92.20;;;;;;4973021;28;20585;-64
2022/07/28 08:17:56;;;;;;;;;;;22.20;91.30;;;;;;4972631;28;20669;-65
2022/07/28 08:20:24;;;;;;;;;;;22.00;91.40;;;;;;4973081;28;20266;-65
2022/07/28 08:22:53;;;;;;;;;;;22.00;92.10;;;;;;4998351;22;20289;-64
2022/07/28 08:25:20;;;;;;;;;;;22.20;92.10;;;;;;4988700;28;20233;-64
2022/07/28 08:27:48;;;;;;;;;;;22.30;91.60;;;;;;4989314;28;20611;-64
2022/07/28 08:30:18;;;;;;;;;;;22.40;92.40;;;;;;4985377;28;20681;-64
2022/07/28 08:32:50;;;;;;;;;;;22.60;91.60;;;;;;4986026;28;20208;-64
2022/07/28 08:35:24;;;;;;;;;;;22.40;91.50;;;;;;4991774;28;20249;-64
2022/07/28 08:38:01;;;;;;;;;;;22.30;92.00;;;;;;4991646;28;20212;-64
2022/07/28 08:40:31;;;;;;;;;;;22.40;91.40;;;;;;4992162;28;20195;-64
2022/07/28 08:43:01;;;;;;;;;;;22.70;91.60;;;;;;4991377;28;20291;-63
2022/07/28 08:45:31;;;;;;;;;;;22.90;91.90;;;;;;4991823;28;20627;-64
2022/07/28 08:48:04;;;;;;;;;;;23.00;91.10;;;;;;4991528;28;20200;-64
2022/07/28 08:50:36;;;;;;;;;;;23.00;91.00;;;;;;4992188;28;20210;-64
2022/07/28 08:53:04;;;;;;;;;;;23.20;91.60;;;;;;4991553;28;20200;-64
2022/07/28 08:55:32;;;;;;;;;;;23.30;90.90;;;;;;4991509;28;20254;-64
2022/07/28 08:58:00;;;;;;;;;;;23.40;91.30;;;;;;4991849;28;20273;-64
2022/07/28 09:00:28;;;;;;;;;;;23.40;91.20;;;;;;4991453;28;20192;-64
2022/07/28 09:02:57;;;;;;;;;;;23.50;90.90;;;;;;4991195;28;20625;-64
2022/07/28 09:05:25;;;;;;;;;;;23.60;90.70;;;;;;4992429;28;20211;-64
2022/07/28 09:07:53;;;;;;;;;;;23.50;90.50;;;;;;4991201;28;20211;-65
2022/07/28 09:10:22;;;;;;;;;;;23.70;91.60;;;;;;4991296;28;20199;-64
2022/07/28 09:12:50;;;;;;;;;;;23.90;90.60;;;;;;4991130;28;20207;-64
2022/07/28 09:15:18;;;;;;;;;;;24.10;90.80;;;;;;4991574;28;20607;-64
2022/07/28 09:17:46;;;;;;;;;;;24.20;90.30;;;;;;4990896;28;20212;-64
2022/07/28 09:20:16;;;;;;;;;;;24.20;90.70;;;;;;4991208;28;20200;-64
2022/07/28 09:22:57;;;;;;;;;;;24.20;90.70;;;;;;4990297;28;20208;-64
2022/07/28 09:25:25;;;;;;;;;;;24.30;90.10;;;;;;4990821;28;20688;-64
2022/07/28 09:27:53;;;;;;;;;;;24.10;90.80;;;;;;4990502;28;20208;-64
2022/07/28 09:30:28;;;;;;;;;;;24.30;90.80;;;;;;4990930;28;20608;-64
2022/07/28 09:33:11;;;;;;;;;;;24.20;90.40;;;;;;4990937;28;20224;-64
2022/07/28 09:36:00;;;;;;;;;;;24.40;90.30;;;;;;4991046;28;20196;-64
2022/07/28 09:38:39;;;;;;;;;;;24.40;90.40;;;;;;4973199;28;20214;-67
2022/07/28 09:41:07;;;;;;;;;;;24.60;90.60;;;;;;4990701;28;20207;-66
2022/07/28 09:43:35;;;;;;;;;;;24.90;90.00;;;;;;4984397;28;20245;-67
2022/07/28 09:46:07;;;;;;;;;;;25.10;89.30;;;;;;4984947;28;20264;-67
2022/07/28 09:48:36;;;;;;;;;;;25.20;89.20;;;;;;4985399;28;20204;-67
2022/07/28 09:51:13;;;;;;;;;;;25.50;89.30;;;;;;4990715;28;20199;-67
2022/07/28 09:53:41;;;;;;;;;;;25.60;87.70;;;;;;4990454;28;20204;-67
2022/07/28 09:56:10;;;;;;;;;;;25.60;89.20;;;;;;4990568;28;20188;-66
2022/07/28 09:58:38;;;;;;;;;;;25.80;88.40;;;;;;4990411;28;20211;-66
2022/07/28 10:01:06;;;;;;;;;;;26.20;87.90;;;;;;4990880;28;20265;-67
2022/07/28 10:03:35;;;;;;;;;;;26.00;87.60;;;;;;4990646;28;20614;-67
2022/07/28 10:06:08;;;;;;;;;;;26.10;86.50;;;;;;4990310;28;20208;-67
2022/07/28 10:08:41;;;;;;;;;;;26.20;86.90;;;;;;4990543;28;20208;-67
2022/07/28 10:11:09;;;;;;;;;;;26.40;87.20;;;;;;4990606;28;20588;-67
2022/07/28 10:13:50;;;;;;;;;;;26.30;86.90;;;;;;4990297;28;20253;-67
2022/07/28 10:16:19;;;;;;;;;;;26.60;87.30;;;;;;4990299;28;20211;-65
2022/07/28 10:18:47;;;;;;;;;;;27.00;85.20;;;;;;4990357;28;20200;-65
2022/07/28 10:21:16;;;;;;;;;;;27.20;85.40;;;;;;4990295;28;20200;-65
2022/07/28 10:23:48;;;;;;;;;;;27.30;84.70;;;;;;4989693;28;20211;-66
2022/07/28 10:26:16;;;;;;;;;;;27.40;85.40;;;;;;4989409;28;20192;-65
2022/07/28 10:28:47;;;;;;;;;;;27.40;84.10;;;;;;4989710;28;20196;-65
2022/07/28 10:31:20;;;;;;;;;;;27.60;84.20;;;;;;4990001;28;20211;-66
2022/07/28 10:33:50;;;;;;;;;;;27.30;84.40;;;;;;4982803;28;20203;-65
2022/07/28 10:36:22;;;;;;;;;;;27.20;84.20;;;;;;4983907;28;20241;-65
2022/07/28 10:38:54;;;;;;;;;;;27.10;84.40;;;;;;4990019;28;20253;-65
2022/07/28 10:41:23;;;;;;;;;;;27.50;85.30;;;;;;4990349;28;20195;-65
2022/07/28 10:43:56;;;;;;;;;;;27.80;84.50;;;;;;4989844;28;20199;-65
2022/07/28 10:46:25;;;;;;;;;;;28.10;83.00;;;;;;4989893;28;20261;-65
2022/07/28 10:48:53;;;;;;;;;;;28.00;83.00;;;;;;4989865;28;20204;-65
2022/07/28 10:51:21;;;;;;;;;;;28.10;83.00;;;;;;4989822;28;20207;-65
2022/07/28 10:54:01;;;;;;;;;;;28.10;83.80;;;;;;4988818;28;20203;-65
2022/07/28 10:56:34;;;;;;;;;;;27.90;82.70;;;;;;4989543;28;20218;-66
2022/07/28 10:59:06;;;;;;;;;;;27.90;83.40;;;;;;4989536;28;20207;-65
2022/07/28 11:01:34;;;;;;;;;;;28.40;82.00;;;;;;4989650;28;20203;-65
2022/07/28 11:04:32;;;;;;;;;;;28.70;82.00;;;;;;4989388;28;20279;-65
2022/07/28 11:07:09;;;;;;;;;;;28.40;81.10;;;;;;4989071;28;20211;-66
2022/07/28 11:09:38;;;;;;;;;;;28.50;82.20;;;;;;4989398;28;20210;-65
2022/07/28 11:12:06;;;;;;;;;;;28.80;80.90;;;;;;4989139;28;20672;-65
2022/07/28 11:14:37;;;;;;;;;;;28.60;81.10;;;;;;4989418;28;20203;-65
2022/07/28 11:17:13;;;;;;;;;;;28.70;81.70;;;;;;4989182;28;20219;-65
2022/07/28 11:19:54;;;;;;;;;;;28.80;80.60;;;;;;4989410;28;20621;-65
2022/07/28 11:22:42;;;;;;;;;;;28.50;80.90;;;;;;4985398;28;20750;-65
2022/07/28 11:25:16;;;;;;;;;;;28.90;81.30;;;;;;4989145;28;20204;-65
2022/07/28 11:28:03;;;;;;;;;;;29.00;80.30;;;;;;4989116;28;20249;-65
2022/07/28 11:30:48;;;;;;;;;;;28.50;80.60;;;;;;4989351;28;20691;-65
2022/07/28 11:33:18;;;;;;;;;;;28.40;80.50;;;;;;4970654;28;20207;-65
2022/07/28 11:35:56;;;;;;;;;;;28.10;79.60;;;;;;4989100;28;20207;-65
2022/07/28 11:38:24;;;;;;;;;;;27.80;81.30;;;;;;4989232;28;20211;-65
2022/07/28 11:40:54;;;;;;;;;;;28.00;82.10;;;;;;4988992;28;20733;-65
2022/07/28 11:43:32;;;;;;;;;;;27.70;80.40;;;;;;4988910;28;20200;-66
2022/07/28 11:46:21;;;;;;;;;;;27.60;81.20;;;;;;4992136;28;20943;-65
2022/07/28 11:49:09;;;;;;;;;;;27.20;81.60;;;;;;4992409;28;20260;-66
2022/07/28 11:51:42;;;;;;;;;;;27.00;83.00;;;;;;4992649;28;20196;-65
2022/07/28 11:54:19;;;;;;;;;;;26.90;82.50;;;;;;4974724;28;20290;-65
2022/07/28 11:56:56;;;;;;;;;;;26.70;82.50;;;;;;4992049;28;20676;-65
2022/07/28 11:59:24;;;;;;;;;;;26.50;82.90;;;;;;4986059;28;20216;-66
2022/07/28 12:02:04;;;;;;;;;;;26.60;83.00;;;;;;4992054;28;20590;-65
2022/07/28 12:04:31;;;;;;;;;;;26.60;83.20;;;;;;4992211;28;20208;-65
2022/07/28 12:07:01;;;;;;;;;;;26.80;83.20;;;;;;4992612;28;20273;-65
2022/07/28 12:09:30;;;;;;;;;;;27.10;83.40;;;;;;4991917;28;20715;-65
2022/07/28 12:12:10;;;;;;;;;;;27.30;82.80;;;;;;4992381;28;20576;-65
2022/07/28 12:14:38;;;;;;;;;;;27.40;83.10;;;;;;4992100;28;20282;-66
2022/07/28 12:17:07;;;;;;;;;;;27.40;82.50;;;;;;4991971;28;20619;-65
2022/07/28 12:19:35;;;;;;;;;;;27.40;82.60;;;;;;4991828;28;20196;-66
2022/07/28 12:22:09;;;;;;;;;;;27.30;82.50;;;;;;4991654;28;20203;-66
2022/07/28 12:24:42;;;;;;;;;;;27.60;82.60;;;;;;4991944;28;20200;-65
2022/07/28 12:27:14;;;;;;;;;;;27.80;81.80;;;;;;4991819;28;20195;-65
2022/07/28 12:29:43;;;;;;;;;;;28.50;82.30;;;;;;4991786;28;20200;-66
2022/07/28 12:32:17;;;;;;;;;;;28.80;80.90;;;;;;4991546;28;20206;-65
2022/07/28 12:34:45;;;;;;;;;;;29.20;79.40;;;;;;4991743;28;20231;-65
2022/07/28 12:37:13;;;;;;;;;;;29.60;80.20;;;;;;4991814;28;20192;-65
2022/07/28 12:39:43;;;;;;;;;;;29.90;79.80;;;;;;4991562;28;20253;-65
2022/07/28 12:42:11;;;;;;;;;;;30.10;79.90;;;;;;4991233;28;20201;-66
2022/07/28 12:44:41;;;;;;;;;;;30.20;78.90;;;;;;4991329;28;20219;-65
2022/07/28 12:47:11;;;;;;;;;;;29.60;79.40;;;;;;4991610;28;20196;-66
2022/07/28 12:49:40;;;;;;;;;;;29.60;79.10;;;;;;4985914;28;20207;-66
2022/07/28 12:52:14;;;;;;;;;;;29.60;78.10;;;;;;4985336;28;20225;-66
2022/07/28 12:54:42;;;;;;;;;;;29.60;78.10;;;;;;4985847;28;20208;-65
2022/07/28 12:57:37;;;;;;;;;;;29.60;78.90;;;;;;4990651;28;20199;-66
2022/07/28 13:00:07;;;;;;;;;;;29.90;78.30;;;;;;4991939;28;20671;-65
2022/07/28 13:02:35;;;;;;;;;;;30.20;78.10;;;;;;4990960;28;20256;-66
2022/07/28 13:05:06;;;;;;;;;;;30.40;77.70;;;;;;4991112;28;20261;-66
2022/07/28 13:07:34;;;;;;;;;;;30.20;77.50;;;;;;4991496;28;20612;-65
2022/07/28 13:10:03;;;;;;;;;;;30.30;78.00;;;;;;4991235;28;20199;-66
2022/07/28 13:12:31;;;;;;;;;;;29.80;77.70;;;;;;4990973;28;20210;-65
2022/07/28 13:15:00;;;;;;;;;;;29.70;78.10;;;;;;4991096;28;20237;-65
2022/07/28 13:17:47;;;;;;;;;;;29.60;78.10;;;;;;4991120;28;20207;-65
2022/07/28 13:20:17;;;;;;;;;;;29.90;77.50;;;;;;4991117;28;20216;-65
2022/07/28 13:22:45;;;;;;;;;;;29.60;77.50;;;;;;4990375;28;20575;-66
2022/07/28 13:25:13;;;;;;;;;;;29.30;78.20;;;;;;4990875;28;20207;-65
2022/07/28 13:27:41;;;;;;;;;;;29.10;77.40;;;;;;4990731;28;20236;-66
2022/07/28 13:30:09;;;;;;;;;;;29.20;78.50;;;;;;4990779;28;20204;-65
2022/07/28 13:32:37;;;;;;;;;;;29.40;77.70;;;;;;4991292;28;20239;-65
2022/07/28 13:35:06;;;;;;;;;;;29.40;78.30;;;;;;4990765;28;20191;-65
2022/07/28 13:37:43;;;;;;;;;;;29.20;77.70;;;;;;4990800;28;20207;-65
2022/07/28 13:40:11;;;;;;;;;;;29.30;79.30;;;;;;4990922;28;20192;-65
2022/07/28 13:42:39;;;;;;;;;;;29.40;78.90;;;;;;4990172;28;20206;-66
2022/07/28 13:45:20;;;;;;;;;;;29.60;76.60;;;;;;4990689;28;20265;-66
2022/07/28 13:47:50;;;;;;;;;;;29.70;77.60;;;;;;4990689;28;20206;-65
2022/07/28 13:50:20;;;;;;;;;;;29.60;77.60;;;;;;4990567;28;20204;-65
2022/07/28 13:52:49;;;;;;;;;;;29.60;77.10;;;;;;4990011;28;20657;-66
2022/07/28 13:55:18;;;;;;;;;;;29.50;76.80;;;;;;4990300;28;20188;-65
2022/07/28 13:57:49;;;;;;;;;;;29.50;78.20;;;;;;4990330;28;20195;-66
2022/07/28 14:00:18;;;;;;;;;;;29.60;77.60;;;;;;4990446;28;20200;-65
2022/07/28 14:02:49;;;;;;;;;;;29.40;77.60;;;;;;4990260;28;20601;-66
2022/07/28 14:05:17;;;;;;;;;;;29.60;77.60;;;;;;4990236;28;20200;-65
2022/07/28 14:07:46;;;;;;;;;;;29.50;76.90;;;;;;4989648;28;20207;-65
2022/07/28 14:10:17;;;;;;;;;;;29.40;77.50;;;;;;4990328;28;20204;-65
2022/07/28 14:12:45;;;;;;;;;;;29.10;76.90;;;;;;4990038;28;20204;-65
2022/07/28 14:15:13;;;;;;;;;;;29.00;76.80;;;;;;4990075;28;20245;-66
2022/07/28 14:17:41;;;;;;;;;;;29.00;77.20;;;;;;4989940;28;20200;-65
2022/07/28 14:20:13;;;;;;;;;;;28.90;78.30;;;;;;4990355;28;20204;-65
2022/07/28 14:22:40;;;;;;;;;;;29.10;79.20;;;;;;4990616;28;20245;-65
2022/07/28 14:25:09;;;;;;;;;;;29.00;77.50;;;;;;4989798;28;20577;-66
2022/07/28 14:27:40;;;;;;;;;;;29.00;76.90;;;;;;4988099;28;20216;-66
2022/07/28 14:30:08;;;;;;;;;;;28.90;77.60;;;;;;4989538;28;20200;-65
2022/07/28 14:32:36;;;;;;;;;;;28.90;77.70;;;;;;4989487;28;20204;-66